Time;durP1;ratioP1;P1;durP2;ratioP2;P2;SDS_P1;SDS_P2;PMS_P1;PMS_P2;Temp;Humidity;BMP_temperature;BMP_pressure;BME280_temperature;BME280_humidity;BME280_pressure;Samples;Min_cycle;Max_cycle;Signal;HPM_P1;HPM_P2
2022/08/15 00:00:15;;;;;;;16.88;12.13;;;;;;;20.42;100.00;99266.63;5117494;28;20041;-82
2022/08/15 00:03:05;;;;;;;19.17;12.43;;;;;;;20.47;100.00;99277.97;5117691;28;20051;-81
2022/08/15 00:05:34;;;;;;;19.60;11.73;;;;;;;20.44;100.00;99267.34;5098356;28;20040;-81
2022/08/15 00:08:02;;;;;;;17.35;12.25;;;;;;;20.38;100.00;99266.09;5112832;28;20055;-81
2022/08/15 00:10:29;;;;;;;17.45;11.75;;;;;;;20.37;100.00;99263.53;5117424;28;20488;-81
2022/08/15 00:13:00;;;;;;;20.00;11.98;;;;;;;20.36;100.00;99264.56;5117404;28;20040;-81
2022/08/15 00:15:28;;;;;;;21.65;11.75;;;;;;;20.34;100.00;99263.88;5118276;28;20484;-81
2022/08/15 00:17:55;;;;;;;18.85;12.13;;;;;;;20.30;100.00;99274.28;5099789;28;20074;-82
2022/08/15 00:20:24;;;;;;;17.25;12.02;;;;;;;20.28;100.00;99279.06;5117073;28;20039;-82
2022/08/15 00:22:52;;;;;;;19.63;12.27;;;;;;;20.28;100.00;99284.56;5116927;28;20047;-81
2022/08/15 00:25:20;;;;;;;18.80;12.82;;;;;;;20.25;100.00;99284.88;5116921;28;20050;-81
2022/08/15 00:27:48;;;;;;;22.85;12.52;;;;;;;20.24;100.00;99281.31;5117205;28;20050;-81
2022/08/15 00:30:16;;;;;;;18.08;11.82;;;;;;;20.25;100.00;99277.53;5116987;28;20119;-82
2022/08/15 00:32:55;;;;;;;17.23;12.27;;;;;;;20.16;100.00;99278.50;5117257;28;20043;-82
2022/08/15 00:35:37;;;;;;;17.50;12.57;;;;;;;20.10;100.00;99280.03;5118637;28;20381;-82
2022/08/15 00:38:05;;;;;;;17.58;12.18;;;;;;;20.09;100.00;99289.25;5112256;28;20546;-81
2022/08/15 00:41:39;;;;;;;21.13;12.38;;;;;;;20.10;100.00;99295.59;5096357;28;20405;-82
2022/08/15 00:43:21;;;;;;;19.05;12.93;;;;;;;20.05;100.00;99290.59;5096003;28;20070;-81
2022/08/15 00:45:49;;;;;;;18.77;12.82;;;;;;;20.07;100.00;99291.31;5096434;28;20504;-81
2022/08/15 00:51:03;;;;;;;19.95;12.68;;;;;;;20.00;100.00;99290.25;5108064;28;20060;-82
2022/08/15 00:53:31;;;;;;;17.25;12.52;;;;;;;20.00;100.00;99286.63;5115458;28;20126;-82
2022/08/15 00:55:59;;;;;;;19.38;12.45;;;;;;;19.94;100.00;99279.91;5114542;27;20039;-82
2022/08/15 00:58:26;;;;;;;18.85;11.80;;;;;;;19.84;100.00;99280.00;5115220;28;20409;-81
2022/08/15 01:00:54;;;;;;;20.05;12.10;;;;;;;19.77;100.00;99284.34;5115280;28;20036;-82
2022/08/15 01:03:31;;;;;;;21.05;11.50;;;;;;;19.69;100.00;99277.81;5115014;28;20036;-82
2022/08/15 01:06:01;;;;;;;18.98;11.00;;;;;;;19.65;100.00;99270.94;5114785;27;20039;-82
2022/08/15 01:08:33;;;;;;;17.58;12.55;;;;;;;19.71;100.00;99274.91;5114503;28;20039;-82
2022/08/15 01:11:04;;;;;;;20.73;12.57;;;;;;;19.75;100.00;99275.44;5115264;28;20051;-82
2022/08/15 01:13:32;;;;;;;16.67;11.80;;;;;;;19.72;100.00;99273.03;5095909;28;20459;-82
2022/08/15 01:15:59;;;;;;;17.75;12.60;;;;;;;19.76;100.00;99277.16;5094748;28;20048;-82
2022/08/15 01:18:27;;;;;;;18.58;12.38;;;;;;;19.74;100.00;99279.19;5114287;28;20092;-82
2022/08/15 01:20:55;;;;;;;18.55;11.95;;;;;;;19.77;100.00;99268.78;5114551;27;20045;-82
2022/08/15 01:23:27;;;;;;;19.88;12.73;;;;;;;19.79;100.00;99274.13;5114972;28;20096;-82
2022/08/15 01:25:59;;;;;;;20.90;12.50;;;;;;;19.75;100.00;99269.97;5114724;28;20051;-82
2022/08/15 01:28:30;;;;;;;19.63;12.70;;;;;;;19.80;100.00;99267.63;5115068;28;20074;-82
2022/08/15 01:31:01;;;;;;;20.92;11.32;;;;;;;19.68;100.00;99262.38;5115380;27;20492;-82
2022/08/15 01:33:31;;;;;;;23.92;12.00;;;;;;;19.65;100.00;99265.44;5116667;27;20051;-82
2022/08/15 01:35:59;;;;;;;19.60;11.98;;;;;;;19.61;100.00;99269.53;5114743;27;20489;-82
2022/08/15 01:38:29;;;;;;;19.85;12.30;;;;;;;19.67;100.00;99270.78;5113866;28;20123;-82
2022/08/15 01:41:04;;;;;;;19.15;12.40;;;;;;;19.68;100.00;99261.53;5115941;27;20040;-82
2022/08/15 01:43:35;;;;;;;17.92;11.60;;;;;;;19.61;100.00;99263.22;5115853;28;20470;-82
2022/08/15 01:46:05;;;;;;;17.27;11.75;;;;;;;19.54;100.00;99263.81;5114617;27;20489;-82
2022/08/15 01:48:36;;;;;;;19.02;11.88;;;;;;;19.44;100.00;99264.94;5114450;28;20039;-83
2022/08/15 01:51:06;;;;;;;19.13;11.75;;;;;;;19.52;100.00;99267.75;5069359;27;1308982;-82
2022/08/15 01:53:39;;;;;;;21.00;12.40;;;;;;;19.54;100.00;99257.50;5117009;28;20552;-82
2022/08/15 01:56:10;;;;;;;19.38;12.68;;;;;;;19.55;100.00;99251.00;5116994;28;20040;-83
2022/08/15 01:58:39;;;;;;;20.60;11.77;;;;;;;19.52;100.00;99252.16;5115199;28;20043;-82
2022/08/15 02:01:08;;;;;;;20.80;11.70;;;;;;;19.36;100.00;99250.16;5115272;28;20068;-82
2022/08/15 02:03:38;;;;;;;17.45;10.68;;;;;;;19.31;100.00;99247.03;5114954;27;20093;-81
2022/08/15 02:06:10;;;;;;;16.85;11.13;;;;;;;19.25;100.00;99253.13;5113858;27;20050;-82
2022/08/15 02:08:37;;;;;;;15.38;10.45;;;;;;;19.20;100.00;99259.09;5095900;28;20046;-83
2022/08/15 02:11:10;;;;;;;18.92;11.38;;;;;;;19.22;100.00;99253.44;5094771;28;20047;-84
2022/08/15 02:13:38;;;;;;;18.38;11.80;;;;;;;19.26;100.00;99254.84;5100322;28;20412;-81
2022/08/15 02:16:05;;;;;;;19.23;11.48;;;;;;;19.29;100.00;99259.16;5114777;27;20433;-81
2022/08/15 02:18:33;;;;;;;18.40;11.85;;;;;;;19.28;100.00;99254.72;5114684;27;20052;-82
2022/08/15 02:21:01;;;;;;;19.23;11.95;;;;;;;19.25;100.00;99253.13;5114159;28;20044;-84
2022/08/15 02:23:28;;;;;;;20.15;13.00;;;;;;;19.26;100.00;99252.13;5114043;28;20042;-81
2022/08/15 02:25:56;;;;;;;21.75;13.20;;;;;;;19.27;100.00;99251.09;5114805;28;20485;-82
2022/08/15 02:28:26;;;;;;;19.17;12.80;;;;;;;19.26;100.00;99241.16;5112843;27;20385;-81
2022/08/15 02:30:54;;;;;;;18.88;12.13;;;;;;;19.31;100.00;99246.19;5126438;27;20043;-81
2022/08/15 02:33:22;;;;;;;18.88;13.35;;;;;;;19.31;100.00;99246.19;5114214;28;20043;-82
2022/08/15 02:35:51;;;;;;;22.48;14.40;;;;;;;19.33;100.00;99245.00;5114696;28;20374;-82
2022/08/15 02:38:18;;;;;;;19.65;12.63;;;;;;;19.37;100.00;99246.38;5114626;28;20039;-82
2022/08/15 02:40:46;;;;;;;19.27;12.93;;;;;;;19.37;100.00;99237.34;5114628;28;20489;-83
2022/08/15 02:43:15;;;;;;;19.90;12.63;;;;;;;19.36;100.00;99239.19;5113779;28;20511;-83
2022/08/15 02:45:47;;;;;;;17.20;12.50;;;;;;;19.37;100.00;99243.66;5114209;28;20465;-83
2022/08/15 02:48:15;;;;;;;17.67;12.05;;;;;;;19.36;100.00;99233.72;5115540;28;20066;-82
2022/08/15 02:50:46;;;;;;;17.95;13.02;;;;;;;19.44;100.00;99232.94;5113892;27;20390;-82
2022/08/15 02:53:17;;;;;;;21.27;12.57;;;;;;;19.41;100.00;99236.00;5114372;28;20044;-82
2022/08/15 02:55:47;;;;;;;17.75;12.52;;;;;;;19.41;100.00;99227.78;5115167;28;20400;-82
2022/08/15 02:58:16;;;;;;;18.30;12.85;;;;;;;19.42;100.00;99223.19;5118866;27;20035;-82
2022/08/15 03:00:46;;;;;;;20.52;13.25;;;;;;;19.40;100.00;99221.47;5136294;27;20047;-83
2022/08/15 03:03:15;;;;;;;19.60;13.50;;;;;;;19.38;100.00;99228.97;5134779;27;20047;-83
2022/08/15 03:05:47;;;;;;;22.45;13.32;;;;;;;19.36;100.00;99230.13;5134718;27;20051;-83
2022/08/15 03:08:15;;;;;;;22.58;12.35;;;;;;;19.39;100.00;99233.44;5135851;27;20054;-82
2022/08/15 03:10:42;;;;;;;24.05;12.30;;;;;;;19.38;100.00;99234.44;5134087;27;20430;-83
2022/08/15 03:13:13;;;;;;;17.15;12.68;;;;;;;19.36;100.00;99244.66;5116291;27;20507;-82
2022/08/15 03:15:43;;;;;;;20.73;13.02;;;;;;;19.43;100.00;99238.59;5114696;28;20493;-82
2022/08/15 03:18:12;;;;;;;19.45;12.48;;;;;;;19.39;100.00;99233.44;5113795;28;20550;-82
2022/08/15 03:20:41;;;;;;;18.65;12.65;;;;;;;19.46;100.00;99238.28;5114154;28;20401;-81
2022/08/15 03:23:09;;;;;;;20.42;12.30;;;;;;;19.42;100.00;99231.41;5113832;27;20047;-82
2022/08/15 03:25:40;;;;;;;19.38;12.70;;;;;;;19.44;100.00;99241.16;5114945;27;20377;-82
2022/08/15 03:28:08;;;;;;;19.33;12.70;;;;;;;19.42;100.00;99237.72;5121280;27;20070;-82
2022/08/15 03:30:37;;;;;;;19.80;12.55;;;;;;;19.42;100.00;99242.34;5113230;28;20485;-82
2022/08/15 03:33:06;;;;;;;16.90;11.80;;;;;;;19.42;100.00;99236.88;5123056;27;20049;-82
2022/08/15 03:35:40;;;;;;;19.38;12.32;;;;;;;19.38;100.00;99230.84;5134214;27;20043;-82
2022/08/15 03:38:07;;;;;;;21.20;12.82;;;;;;;19.42;100.00;99237.72;5134320;27;20050;-82
2022/08/15 03:40:35;;;;;;;21.33;12.10;;;;;;;19.37;100.00;99232.69;5115990;27;20039;-81
2022/08/15 03:43:05;;;;;;;20.05;13.10;;;;;;;19.38;100.00;99233.56;5112587;28;20054;-81
2022/08/15 03:45:33;;;;;;;21.55;13.25;;;;;;;19.42;100.00;99242.34;5112832;28;20598;-81
2022/08/15 03:48:01;;;;;;;19.73;12.73;;;;;;;19.43;100.00;99236.69;5113462;28;20047;-82
2022/08/15 03:50:29;;;;;;;20.15;12.27;;;;;;;19.50;100.00;99245.16;5113636;28;20079;-82
2022/08/15 03:53:00;;;;;;;18.27;12.27;;;;;;;19.51;100.00;99250.44;5113397;28;20499;-81
2022/08/15 03:55:29;;;;;;;19.80;12.93;;;;;;;19.47;100.00;99248.22;5113508;28;20092;-81
2022/08/15 03:57:57;;;;;;;19.63;13.18;;;;;;;19.43;100.00;99244.06;5113076;28;20050;-82
2022/08/15 04:00:27;;;;;;;21.08;12.57;;;;;;;19.40;100.00;99253.44;5119115;27;20058;-81
2022/08/15 04:03:08;;;;;;;18.85;12.38;;;;;;;19.50;100.00;99251.47;5134306;27;20051;-82
2022/08/15 04:05:36;;;;;;;18.00;12.70;;;;;;;19.53;100.00;99253.88;5115018;28;20109;-82
2022/08/15 04:08:06;;;;;;;19.65;12.52;;;;;;;19.54;100.00;99250.13;5114230;28;20039;-83
2022/08/15 04:10:35;;;;;;;17.33;12.63;;;;;;;19.58;100.00;99247.94;5113368;28;20052;-83
2022/08/15 04:13:05;;;;;;;18.83;12.68;;;;;;;19.62;100.00;99245.75;5113215;28;20108;-83
2022/08/15 04:15:32;;;;;;;20.58;12.50;;;;;;;19.63;100.00;99251.06;5113017;28;20040;-83
2022/08/15 04:18:00;;;;;;;20.05;13.02;;;;;;;19.66;100.00;99253.47;5123684;27;20388;-83
2022/08/15 04:20:28;;;;;;;18.00;12.32;;;;;;;19.65;100.00;99253.66;5133930;27;20054;-82
2022/08/15 04:22:55;;;;;;;20.88;13.23;;;;;;;19.65;100.00;99253.66;5133783;27;20043;-82
2022/08/15 04:25:27;;;;;;;18.85;12.25;;;;;;;19.66;100.00;99247.16;5129820;27;20047;-82
2022/08/15 04:27:56;;;;;;;19.77;12.80;;;;;;;19.65;100.00;99248.16;5114136;28;20047;-82
2022/08/15 04:30:26;;;;;;;19.40;12.68;;;;;;;19.64;100.00;99249.19;5112794;28;20048;-81
2022/08/15 04:32:56;;;;;;;18.70;12.90;;;;;;;19.68;100.00;99243.22;5122711;27;20063;-81
2022/08/15 04:35:24;;;;;;;21.77;12.85;;;;;;;19.68;100.00;99256.91;5113219;28;20047;-81
2022/08/15 04:37:51;;;;;;;18.50;12.57;;;;;;;19.78;100.00;99250.47;5114124;28;20097;-81
2022/08/15 04:40:18;;;;;;;17.40;12.38;;;;;;;19.72;100.00;99253.84;5113040;28;20096;-81
2022/08/15 04:42:49;;;;;;;17.50;11.82;;;;;;;19.89;100.00;99250.22;5112859;28;20553;-82
2022/08/15 04:45:16;;;;;;;18.85;12.70;;;;;;;19.84;100.00;99249.84;5116027;27;20044;-84
2022/08/15 04:47:44;;;;;;;20.70;12.70;;;;;;;19.82;100.00;99249.16;5116437;27;20554;-79
2022/08/15 04:50:12;;;;;;;18.55;13.23;;;;;;;19.83;100.00;99245.38;5117289;27;20043;-79
2022/08/15 04:52:44;;;;;;;17.65;11.80;;;;;;;19.87;100.00;99248.66;5117173;28;20147;-79
2022/08/15 04:55:13;;;;;;;22.83;12.23;;;;;;;19.94;100.00;99253.38;5117217;28;20515;-83
2022/08/15 04:57:41;;;;;;;18.02;12.35;;;;;;;20.01;100.00;99253.59;5125653;27;20461;-83
2022/08/15 05:00:12;;;;;;;24.35;12.30;;;;;;;20.00;100.00;99245.50;5117261;27;20067;-85
2022/08/15 05:02:40;;;;;;;19.45;12.95;;;;;;;19.98;100.00;99242.91;5129270;27;20120;-83
2022/08/15 05:05:10;;;;;;;19.70;12.48;;;;;;;20.00;100.00;99249.13;5137046;27;20047;-87
2022/08/15 05:07:37;;;;;;;18.45;12.20;;;;;;;20.05;100.00;99256.84;5136911;27;20054;-84
2022/08/15 05:10:08;;;;;;;19.63;12.02;;;;;;;20.13;100.00;99251.41;5128367;27;20056;-84
2022/08/15 05:12:37;;;;;;;20.75;12.40;;;;;;;20.10;100.00;99257.22;5116877;27;20052;-84
2022/08/15 05:15:05;;;;;;;19.48;12.57;;;;;;;20.23;100.00;99256.78;5116325;28;20442;-80
2022/08/15 05:17:34;;;;;;;22.48;12.63;;;;;;;20.18;100.00;99250.94;5115755;27;20401;-74
2022/08/15 05:20:01;;;;;;;18.55;12.52;;;;;;;20.19;100.00;99250.75;5115869;28;20047;-78
2022/08/15 05:22:29;;;;;;;21.48;12.10;;;;;;;20.32;100.00;99257.69;5114272;27;20088;-77
2022/08/15 05:24:57;;;;;;;20.02;11.95;;;;;;;20.19;100.00;99263.59;5115322;28;20046;-84
2022/08/15 05:27:25;;;;;;;21.65;11.88;;;;;;;20.24;100.00;99258.50;5115693;28;20119;-73
2022/08/15 05:29:52;;;;;;;20.17;11.90;;;;;;;20.29;100.00;99255.28;5115644;28;20413;-75
2022/08/15 05:32:20;;;;;;;22.67;12.35;;;;;;;20.49;100.00;99253.13;5114168;28;20039;-76
2022/08/15 05:34:49;;;;;;;19.38;11.93;;;;;;;20.39;100.00;99248.63;5115105;28;20070;-76
2022/08/15 05:37:18;;;;;;;17.23;11.98;;;;;;;20.29;100.00;99242.41;5115524;28;20098;-85
2022/08/15 05:39:47;;;;;;;17.52;11.15;;;;;;;20.23;100.00;99246.69;5115556;28;20054;-84
2022/08/15 05:42:25;;;;;;;18.75;12.52;;;;;;;20.23;100.00;99249.44;5105139;28;20040;-78
2022/08/15 05:44:57;;;;;;;20.63;12.07;;;;;;;20.22;100.00;99242.22;5107543;28;20462;-78
2022/08/15 05:47:31;;;;;;;18.95;12.10;;;;;;;20.23;100.00;99241.19;5115484;27;20570;-78
2022/08/15 05:50:19;;;;;;;22.10;11.85;;;;;;;20.20;100.00;99252.50;5115130;28;20048;-78
2022/08/15 05:52:52;;;;;;;19.35;11.82;;;;;;;20.25;100.00;99252.00;5094382;28;20093;-78
2022/08/15 05:55:25;;;;;;;17.92;11.65;;;;;;;20.43;100.00;99257.38;5091334;28;20043;-79
2022/08/15 05:58:13;;;;;;;17.52;12.00;;;;;;;20.45;100.00;99252.59;5093715;28;20040;-78
2022/08/15 06:00:41;;;;;;;18.38;11.82;;;;;;;20.36;100.00;99253.59;5078539;28;20055;-78
2022/08/15 06:03:14;;;;;;;19.83;11.88;;;;;;;20.39;100.00;99245.88;5075483;28;20383;-78
2022/08/15 06:05:47;;;;;;;18.13;12.57;;;;;;;20.39;100.00;99245.03;5073805;28;20052;-84
2022/08/15 06:08:18;;;;;;;16.75;11.60;;;;;;;20.38;100.00;99252.38;5072727;28;20063;-78
2022/08/15 06:10:50;;;;;;;18.45;11.52;;;;;;;20.45;100.00;99249.84;5072579;28;20044;-81
2022/08/15 06:13:21;;;;;;;17.45;11.43;;;;;;;20.46;100.00;99250.72;5071391;28;20119;-80
2022/08/15 06:15:52;;;;;;;18.98;12.35;;;;;;;20.52;100.00;99250.06;5090654;28;20063;-81
2022/08/15 06:18:21;;;;;;;22.25;12.05;;;;;;;20.73;100.00;99241.38;5083843;28;20397;-78
2022/08/15 06:20:55;;;;;;;18.25;11.77;;;;;;;20.83;100.00;99253.09;5078621;28;20055;-79
2022/08/15 06:23:31;;;;;;;18.08;12.00;;;;;;;20.80;100.00;99245.22;5090931;28;20390;-83
2022/08/15 06:26:03;;;;;;;;;;;;;;;20.97;100.00;99237.88;5091078;28;20040;-82
2022/08/15 06:28:48;;;;;;;19.23;11.40;;;;;;;20.99;100.00;99229.44;5091481;28;20381;-82
2022/08/15 06:31:20;;;;;;;17.67;11.35;;;;;;;21.12;100.00;99243.56;5091605;28;20047;-82
2022/08/15 06:33:54;;;;;;;17.85;11.20;;;;;;;21.12;100.00;99232.56;5089805;28;20047;-80
2022/08/15 06:36:28;;;;;;;16.67;11.02;;;;;;;21.08;100.00;99238.56;5093656;28;20496;-78
2022/08/15 06:39:02;;;;;;;18.17;12.13;;;;;;;21.10;100.00;99226.41;5092117;28;20078;-78
2022/08/15 06:41:35;;;;;;;17.52;12.00;;;;;;;21.08;100.00;99230.31;5091562;28;20047;-82
2022/08/15 06:44:03;;;;;;;20.75;11.13;;;;;;;21.09;100.00;99227.44;5092699;28;20052;-81
2022/08/15 06:46:33;;;;;;;20.35;11.50;;;;;;;21.13;100.00;99226.06;5090196;28;20489;-81
2022/08/15 06:49:03;;;;;;;20.75;11.80;;;;;;;21.19;100.00;99240.13;5091626;28;20485;-82
2022/08/15 06:51:34;;;;;;;18.50;11.70;;;;;;;21.26;100.00;99239.28;5105284;28;20051;-81
2022/08/15 06:54:01;;;;;;;16.17;11.30;;;;;;;21.27;100.00;99237.38;5110642;28;20431;-84
2022/08/15 06:56:32;;;;;;;18.92;11.57;;;;;;;21.23;100.00;99242.38;5111064;28;20054;-76
2022/08/15 06:59:03;;;;;;;17.50;11.07;;;;;;;21.27;100.00;99240.13;5111060;27;20051;-75
2022/08/15 07:01:40;;;;;;;18.48;11.38;;;;;;;21.25;100.00;99244.94;5103738;28;20173;-76
2022/08/15 07:04:14;;;;;;;18.60;11.35;;;;;;;21.27;100.00;99242.88;5112172;28;20049;-75
2022/08/15 07:06:46;;;;;;;17.13;11.10;;;;;;;21.34;100.00;99243.91;5110656;27;20150;-75
2022/08/15 07:09:27;;;;;;;20.80;11.35;;;;;;;21.44;100.00;99237.41;5109321;27;20047;-77
2022/08/15 07:12:05;;;;;;;18.20;11.43;;;;;;;21.60;100.00;99247.50;5109799;28;20062;-74
2022/08/15 07:14:48;;;;;;;19.35;11.43;;;;;;;21.65;100.00;99240.50;5110346;27;20055;-75
2022/08/15 07:17:19;;;;;;;19.33;11.70;;;;;;;21.63;100.00;99244.44;5110462;28;20100;-76
2022/08/15 07:19:47;;;;;;;18.52;11.10;;;;;;;21.76;100.00;99246.66;5104918;28;20089;-76
2022/08/15 07:22:15;;;;;;;22.27;11.38;;;;;;;21.85;100.00;99252.00;5109682;28;20047;-76
2022/08/15 07:24:51;;;;;;;16.25;11.15;;;;;;;21.87;100.00;99249.06;5099959;28;20097;-78
2022/08/15 07:27:28;;;;;;;15.93;11.30;;;;;;;21.85;100.00;99254.72;5094152;28;20039;-77
2022/08/15 07:30:01;;;;;;;19.38;11.50;;;;;;;21.85;100.00;99256.63;5110218;28;20101;-77
2022/08/15 07:32:32;;;;;;;16.70;11.30;;;;;;;21.83;100.00;99244.97;5109874;28;20107;-77
2022/08/15 07:35:04;;;;;;;21.83;10.88;;;;;;;21.83;100.00;99256.81;5110767;27;20047;-76
2022/08/15 07:37:35;;;;;;;18.27;10.98;;;;;;;21.83;100.00;99253.22;5108974;28;20043;-75
2022/08/15 07:40:07;;;;;;;18.65;10.88;;;;;;;21.89;100.00;99243.38;5110194;28;20123;-76
2022/08/15 07:42:41;;;;;;;16.90;10.88;;;;;;;21.94;100.00;99254.72;5110304;28;20052;-76
2022/08/15 07:45:15;;;;;;;17.85;11.05;;;;;;;21.98;100.00;99253.31;5109818;28;20134;-76
2022/08/15 07:47:55;;;;;;;19.58;13.77;;;;;;;22.04;100.00;99252.66;5110464;27;20416;-78
2022/08/15 07:50:39;;;;;;;19.50;12.43;;;;;;;22.20;100.00;99248.13;5110534;28;20035;-80
2022/08/15 07:53:16;;;;;;;21.77;11.60;;;;;;;22.24;100.00;99255.88;5108814;28;20626;-77
2022/08/15 07:55:45;;;;;;;16.73;11.73;;;;;;;22.28;100.00;99259.97;5102424;28;20063;-78
2022/08/15 07:58:18;;;;;;;19.00;10.80;;;;;;;22.31;100.00;99266.16;5112274;27;20660;-75
2022/08/15 08:00:52;;;;;;;17.08;10.82;;;;;;;22.32;100.00;99267.88;5113274;28;20051;-75
2022/08/15 08:03:23;;;;;;;20.23;10.95;;;;;;;22.33;100.00;99266.84;5113478;28;20048;-75
2022/08/15 08:05:55;;;;;;;20.30;11.23;;;;;;;22.36;100.00;99258.22;5113993;27;20488;-75
2022/08/15 08:08:28;;;;;;;22.02;11.10;;;;;;;22.39;100.00;99266.97;5112985;28;20039;-75
2022/08/15 08:11:01;;;;;;;17.65;10.90;;;;;;;22.42;100.00;99266.59;5113096;28;20048;-75
2022/08/15 08:13:36;;;;;;;15.40;10.63;;;;;;;22.45;100.00;99268.16;5113149;28;20039;-78
2022/08/15 08:16:09;;;;;;;21.25;10.70;;;;;;;22.44;100.00;99269.19;5113199;28;20499;-78
2022/08/15 08:18:47;;;;;;;23.35;11.35;;;;;;;22.45;100.00;99268.16;5112719;28;20056;-79
2022/08/15 08:21:17;;;;;;;17.95;10.50;;;;;;;22.47;100.00;99271.63;5114281;28;20047;-76
2022/08/15 08:23:49;;;;;;;16.73;10.20;;;;;;;22.45;100.00;99281.91;5115935;27;20035;-76
2022/08/15 08:26:26;;;;;;;20.10;10.23;;;;;;;22.43;100.00;99271.06;5116229;27;20515;-76
2022/08/15 08:28:58;;;;;;;17.95;10.50;;;;;;;22.43;100.00;99268.31;5116630;28;20036;-77
2022/08/15 08:31:43;;;;;;;16.50;10.70;;;;;;;22.47;100.00;99271.63;5115930;28;20042;-76
2022/08/15 08:34:15;;;;;;;17.80;10.45;;;;;;;22.63;100.00;99273.44;5113402;28;20088;-76
2022/08/15 08:36:52;;;;;;;19.73;10.40;;;;;;;22.80;100.00;99265.97;5115401;28;20047;-76
2022/08/15 08:39:41;;;;;;;17.63;10.82;;;;;;;22.88;100.00;99272.47;5115730;27;20507;-78
2022/08/15 08:42:16;;;;;;;14.63;9.63;;;;;;;22.91;100.00;99283.09;5113118;28;20040;-77
2022/08/15 08:44:50;;;;;;;15.57;9.73;;;;;;;22.94;100.00;99285.50;5115424;27;20042;-79
2022/08/15 08:47:32;;;;;;;16.80;9.98;;;;;;;22.94;100.00;99291.00;5116327;28;20040;-77
2022/08/15 08:50:14;;;;;;;20.17;10.07;;;;;;;22.94;100.00;99291.88;5114646;28;20388;-77
2022/08/15 08:52:45;;;;;;;15.05;9.85;;;;;;;22.91;100.00;99286.75;5111577;28;20052;-77
2022/08/15 08:55:19;;;;;;;15.27;9.88;;;;;;;22.85;100.00;99280.03;5110934;28;20040;-81
2022/08/15 08:57:49;;;;;;;16.48;9.93;;;;;;;22.84;100.00;99283.84;5116691;28;20101;-78
2022/08/15 09:00:19;;;;;;;14.45;9.80;;;;;;;22.84;100.00;99283.84;5116252;28;20047;-73
2022/08/15 09:02:49;;;;;;;17.05;9.50;;;;;;;22.82;100.00;99272.16;5110718;28;20105;-75
2022/08/15 09:05:28;;;;;;;17.83;9.88;;;;;;;22.82;100.00;99274.03;5125654;27;20503;-76
2022/08/15 09:07:59;;;;;;;16.70;9.50;;;;;;;22.87;100.00;99282.63;5137315;27;20047;-76
2022/08/15 09:10:32;;;;;;;22.58;9.70;;;;;;;22.98;100.00;99275.84;5117250;27;20100;-78
2022/08/15 09:15:49;;;;;;;17.15;9.43;;;;;;;22.98;100.00;99286.84;5116139;28;20054;-78
2022/08/15 09:18:20;;;;;;;14.85;9.27;;;;;;;23.07;100.00;99285.78;5117011;28;20065;-75
2022/08/15 09:20:48;;;;;;;13.98;8.95;;;;;;;23.20;100.00;99289.84;5116172;28;20180;-75
2022/08/15 09:23:16;;;;;;;18.40;10.10;;;;;;;23.25;100.00;99285.53;5115987;28;20480;-75
2022/08/15 09:25:51;;;;;;;14.07;9.40;;;;;;;23.32;100.00;99276.53;5114607;28;20047;-75
2022/08/15 09:28:25;;;;;;;14.93;9.68;;;;;;;23.36;100.00;99277.88;5115845;28;20047;-76
2022/08/15 09:30:53;;;;;;;16.35;9.68;;;;;;;23.37;100.00;99274.09;5115687;28;20048;-78
2022/08/15 09:33:44;;;;;;;14.32;9.07;;;;;;;23.40;100.00;99270.97;5114672;27;20122;-75
2022/08/15 09:36:41;;;;;;;15.68;8.70;;;;;;;23.46;100.00;99280.38;5104478;28;20040;-75
2022/08/15 09:39:21;;;;;;;14.85;8.27;;;;;;;23.44;100.00;99284.16;5114071;28;20051;-76
2022/08/15 09:41:59;;;;;;;16.38;8.80;;;;;;;23.48;100.00;99278.31;5113967;28;20043;-80
2022/08/15 09:44:47;;;;;;;17.27;8.60;;;;;;;23.48;100.00;99276.41;5113232;28;20089;-75
2022/08/15 09:47:40;;;;;;;13.18;8.30;;;;;;;23.50;100.00;99273.47;5107084;28;20051;-76
2022/08/15 09:50:34;;;;;;;20.52;8.90;;;;;;;23.55;100.00;99271.00;5100117;28;20048;-75
2022/08/15 09:53:08;;;;;;;15.80;8.65;;;;;;;23.44;100.00;99270.38;5100528;28;20086;-77
2022/08/15 09:55:44;;;;;;;16.42;8.80;;;;;;;23.38;100.00;99267.53;5112723;28;20074;-76
2022/08/15 09:58:20;;;;;;;13.38;8.25;;;;;;;23.49;100.00;99266.25;5108114;28;20055;-78
2022/08/15 10:01:03;;;;;;;13.07;8.63;;;;;;;23.45;100.00;99274.00;5111504;28;20043;-76
2022/08/15 10:03:53;;;;;;;15.57;8.70;;;;;;;23.31;100.00;99272.91;5112861;28;20035;-80
2022/08/15 10:06:23;;;;;;;16.10;8.50;;;;;;;23.28;100.00;99270.53;5110510;28;20120;-77
2022/08/15 10:09:11;;;;;;;15.38;8.70;;;;;;;23.33;100.00;99270.81;5109751;27;20043;-76
2022/08/15 10:11:58;;;;;;;15.95;9.18;;;;;;;23.28;100.00;99268.63;5108228;28;20048;-76
2022/08/15 10:14:29;;;;;;;14.43;8.15;;;;;;;23.39;100.00;99277.50;5112142;27;20040;-76
2022/08/15 10:16:59;;;;;;;14.77;8.98;;;;;;;23.26;100.00;99273.47;5108901;28;20159;-76
2022/08/15 10:19:30;;;;;;;17.50;8.88;;;;;;;23.18;100.00;99278.97;5111248;28;20048;-78
2022/08/15 10:22:00;;;;;;;15.10;8.95;;;;;;;23.17;100.00;99276.44;5114761;28;20416;-81
2022/08/15 10:24:30;;;;;;;14.18;9.05;;;;;;;23.16;100.00;99267.28;5112087;28;20404;-79
2022/08/15 10:27:09;;;;;;;14.30;9.23;;;;;;;23.18;100.00;99267.13;5114167;28;20100;-81
2022/08/15 10:29:39;;;;;;;17.15;8.82;;;;;;;23.19;100.00;99271.59;5112266;28;20040;-83
2022/08/15 10:32:21;;;;;;;19.42;9.68;;;;;;;23.19;100.00;99269.69;5108413;28;20541;-78
2022/08/15 10:35:02;;;;;;;13.35;9.18;;;;;;;23.21;100.00;99269.50;5112521;28;20054;-81
2022/08/15 10:37:33;;;;;;;13.32;9.30;;;;;;;23.23;100.00;99270.19;5111006;28;20401;-76
2022/08/15 10:40:34;;;;;;;20.38;9.75;;;;;;;23.27;100.00;99266.94;5109350;28;20040;-77
2022/08/15 10:43:16;;;;;;;14.23;9.07;;;;;;;23.29;100.00;99270.34;5027456;28;20103;-76
2022/08/15 10:45:50;;;;;;;16.90;8.95;;;;;;;23.32;100.00;99271.88;5015465;28;20397;-76
2022/08/15 10:48:28;;;;;;;15.02;9.13;;;;;;;23.38;100.00;99271.13;5021248;28;20053;-76
2022/08/15 10:51:03;;;;;;;13.38;8.60;;;;;;;23.41;100.00;99259.72;5024208;28;20061;-79
2022/08/15 10:53:45;;;;;;;15.75;9.75;;;;;;;23.53;100.00;99273.94;5028041;28;20049;-78
2022/08/15 10:56:16;;;;;;;14.15;8.77;;;;;;;23.63;100.00;99268.19;5028455;28;20050;-78
2022/08/15 10:58:44;;;;;;;17.05;9.15;;;;;;;23.54;100.00;99272.91;5026422;28;20048;-76
2022/08/15 11:01:14;;;;;;;15.27;9.60;;;;;;;23.53;100.00;99273.09;5025861;28;20097;-78
2022/08/15 11:03:45;;;;;;;14.43;9.45;;;;;;;23.55;100.00;99279.28;5026429;28;20095;-78
2022/08/15 11:06:14;;;;;;;13.50;8.70;;;;;;;23.53;100.00;99284.13;5025967;28;20053;-77
2022/08/15 11:08:47;;;;;;;14.93;9.35;;;;;;;23.52;100.00;99279.66;5024315;28;20049;-79
2022/08/15 11:11:15;;;;;;;17.60;9.10;;;;;;;23.54;100.00;99288.59;5021382;28;20052;-78
2022/08/15 11:13:43;;;;;;;13.20;9.32;;;;;;;23.53;100.00;99284.97;5025315;28;20049;-77
2022/08/15 11:16:15;;;;;;;14.73;9.82;;;;;;;23.50;100.00;99278.97;5033604;28;20510;-78
2022/08/15 11:18:46;;;;;;;15.63;9.38;;;;;;;23.51;100.00;99284.28;5108568;27;20412;-78
2022/08/15 11:21:29;;;;;;;17.00;10.65;;;;;;;23.47;100.00;99282.09;5112623;28;20112;-78
2022/08/15 11:23:59;;;;;;;14.98;9.65;;;;;;;23.44;100.00;99273.13;5111945;28;20051;-76
2022/08/15 11:26:28;;;;;;;15.82;9.23;;;;;;;23.48;100.00;99281.06;5108141;27;20159;-78
2022/08/15 11:28:57;;;;;;;15.43;9.30;;;;;;;23.41;100.00;99272.66;5107247;28;20389;-80
2022/08/15 11:31:26;;;;;;;16.73;9.60;;;;;;;23.41;100.00;99276.25;5096676;28;20473;-86
2022/08/15 11:33:54;;;;;;;14.95;9.60;;;;;;;23.38;100.00;99287.66;5110260;28;20100;-82
2022/08/15 11:36:23;;;;;;;16.48;9.35;;;;;;;23.36;100.00;99292.50;5097058;28;20382;-76
2022/08/15 11:38:53;;;;;;;19.23;9.43;;;;;;;23.32;100.00;99295.81;5110400;28;20050;-79